Clinton, OK (73601)

10:26 AM CDT on July 29, 2016 (GMT -0500)
Weatherford | | Change Station

Elev 1604 ft 35.54 °N, 98.67 °W | Updated 11 minutes ago

Heavy Rain
Heavy Rain
66 °F
Feels Like 66 °F
N
8
Wind Variable Wind from SSE

Today
High -- | Low -- °F
--% Chance of Precip.
Yesterday
High -- | Low -- °F
Precip. -- in
Pressure 30.13 in
Visibility 5.0 miles
Clouds Scattered Clouds 3500 ft
Mostly Cloudy 4900 ft
Overcast 7000 ft
Dew Point 64 °F
Humidity 94%
Rainfall 0.51 in
Snow Depth Not available.
6:42 AM 8:41 PM
Waning Crescent, 21% visible
METAR KOJA 291515Z AUTO 16007KT 5SM +RA SCT035 BKN049 OVC070 19/18 A3013 RMK AO2 LTG DSNT N AND W P0005
Pressure 30.13 in
Visibility 5.0 miles
Clouds Scattered Clouds 3500 ft
Mostly Cloudy 4900 ft
Overcast 7000 ft
Dew Point 64 °F
Humidity 94%
Rainfall 0.51 in
Snow Depth Not available.
6:42 AM 8:41 PM
Waning Crescent, 21% visible
METAR KOJA 291515Z AUTO 16007KT 5SM +RA SCT035 BKN049 OVC070 19/18 A3013 RMK AO2 LTG DSNT N AND W P0005

10-Day Weather Forecast

Almanac

Astronomy

Jul. 29, 2016 Rise Set
Actual Time
Civil Twilight
Nautical Twilight
Astronomical Twilight
Moon
Length of Visible Light
Length of Day
Tomorrow will be .
, % of the Moon is Illuminated

Today's Extremes

State Highs State Lows

Community

WunderPhotos

Upload Photos

1,928,346 photos uploaded!

WunderBlog® & News

Nearby

Air Quality

  Air Quality AQ Index Pollutant
Not available.

Snow Depth

Station Depth Elevation

Earthquake Activity

City Distance Mag. Time & Date
Minimum magnitude displayed is 2.5.

Coastal Water Temperatures

Place Temperature

Stations

Nearby Weather Stations

Station Location Temp. Windchill Dew Point Humidity Wind Precip. Elev Updated Type
                   

Watches & Warnings

There are currently no watches in effect.